KHZR

False River Regional Airport

New Roads, Louisiana, USA
METAR KHZR 171456Z AUTO 00000KT 7SM CLR 09/09 A3032 RMK AO2
Observed Flight Rules
Dec-17 @ 14:56 UTC (16 minutes ago) Visual Flight Rules
Visibility Clouds
7 miles
  • Clear skies
Temperatures Readings
Current 9°C / 48°F
Dewpoint 9°C / 48°F
Humidity 100%
Altimeter 30.32" Hg
Pressure 1027 hPa
Elevation 12
METAR KHZR 171456Z AUTO 00000KT 7SM CLR 09/09 A3032 RMK AO2
Observed Flight Rules
Dec-17 @ 14:56 UTC
(16 minutes ago)
VFR
Clouds
  • Clear skies
Temperature Dewpoint
9°C / 48°F 9°C / 48°F
Humidity Altimeter Pressure
100% 30.32" Hg 1027 hPa